Time;durP1;ratioP1;P1;durP2;ratioP2;P2;SDS_P1;SDS_P2;PMS_P1;PMS_P2;Temp;Humidity;BMP_temperature;BMP_pressure;BME280_temperature;BME280_humidity;BME280_pressure;Samples;Min_cycle;Max_cycle;Signal;HPM_P1;HPM_P2
2023/04/27 00:00:06;;;;;;;314.70;127.13;;;;;;;12.76;64.92;99037.59;338079;29;1299;-77
2023/04/27 00:00:17;;;;;;;314.17;124.13;;;;;;;12.80;65.50;99035.66;335661;29;1390;-77
2023/04/27 00:00:28;;;;;;;310.20;122.53;;;;;;;12.73;64.75;99016.78;333929;29;2873;-77
2023/04/27 00:00:38;;;;;;;310.80;122.80;;;;;;;12.81;64.88;99029.47;333463;29;2880;-77
2023/04/27 00:00:49;;;;;;;314.10;125.75;;;;;;;12.81;64.84;99034.72;330462;29;1680;-77
2023/04/27 00:00:59;;;;;;;319.00;128.90;;;;;;;12.84;64.61;99038.00;329333;30;1312;-77
2023/04/27 00:01:11;;;;;;;317.08;127.55;;;;;;;12.80;64.73;99027.78;333061;29;3178;-77
2023/04/27 00:01:21;;;;;;;315.83;127.75;;;;;;;12.85;64.81;99025.72;332350;29;1703;-77
2023/04/27 00:01:32;;;;;;;308.52;125.57;;;;;;;12.81;64.69;99030.31;328420;29;1340;-77
2023/04/27 00:01:42;;;;;;;309.27;125.60;;;;;;;12.76;64.94;99034.13;327793;29;2557;-77
2023/04/27 00:01:52;;;;;;;308.63;122.22;;;;;;;12.75;64.90;99035.06;327187;30;3145;-77
2023/04/27 00:02:03;;;;;;;312.73;122.07;;;;;;;12.78;64.97;99027.88;328136;30;947;-77
2023/04/27 00:02:13;;;;;;;313.10;122.30;;;;;;;12.79;65.06;99034.81;319309;30;1306;-77
2023/04/27 00:02:24;;;;;;;313.50;123.77;;;;;;;12.81;64.79;99038.19;322681;30;2393;-77
2023/04/27 00:02:34;;;;;;;308.03;121.53;;;;;;;12.79;64.78;99034.81;322487;30;3567;-77
2023/04/27 00:02:45;;;;;;;309.40;124.70;;;;;;;12.80;64.69;99041.75;317324;30;2931;-76
2023/04/27 00:02:55;;;;;;;309.73;126.50;;;;;;;12.70;64.93;99029.25;321403;30;5164;-77
2023/04/27 00:03:06;;;;;;;314.90;129.03;;;;;;;12.69;64.79;99036.28;323327;30;1762;-77
2023/04/27 00:03:16;;;;;;;317.02;128.07;;;;;;;12.69;64.75;99036.28;324383;30;2966;-77
2023/04/27 00:03:27;;;;;;;320.53;127.03;;;;;;;12.74;65.27;99044.72;323153;30;1704;-77
2023/04/27 00:03:37;;;;;;;314.52;123.60;;;;;;;12.75;64.86;99040.31;324019;30;3479;-77
2023/04/27 00:03:49;;;;;;;308.92;121.72;;;;;;;12.74;64.80;99039.47;319183;30;2416;-78
2023/04/27 00:04:00;;;;;;;311.65;124.53;;;;;;;12.70;65.01;99032.72;312700;31;2925;-77
2023/04/27 00:04:12;;;;;;;318.47;127.83;;;;;;;12.68;64.85;99031.97;313018;31;2971;-77
2023/04/27 00:04:23;;;;;;;316.50;125.90;;;;;;;12.65;64.83;99025.09;311225;31;3426;-77
2023/04/27 00:04:34;;;;;;;316.92;125.93;;;;;;;12.73;64.94;99037.78;309148;31;3326;-77
2023/04/27 00:04:44;;;;;;;310.40;122.03;;;;;;;12.76;64.75;99040.22;310983;31;1397;-77
2023/04/27 00:04:55;;;;;;;309.95;122.43;;;;;;;12.76;64.94;99040.22;308932;31;5427;-77
2023/04/27 00:05:06;;;;;;;308.88;122.30;;;;;;;12.80;64.70;99033.03;312205;31;3349;-77
2023/04/27 00:05:16;;;;;;;314.48;126.30;;;;;;;12.85;64.81;99046.72;311872;31;967;-77
2023/04/27 00:05:27;;;;;;;314.23;125.87;;;;;;;12.84;64.81;99045.88;312303;31;5405;-77
2023/04/27 00:05:38;;;;;;;314.97;126.90;;;;;;;12.86;64.71;99044.00;310144;31;2097;-77
2023/04/27 00:05:48;;;;;;;309.98;125.20;;;;;;;12.87;64.60;99040.44;309906;31;2944;-77
2023/04/27 00:05:58;;;;;;;309.27;123.28;;;;;;;12.88;64.50;99046.56;306428;32;3399;-77
2023/04/27 00:06:09;;;;;;;308.33;122.40;;;;;;;12.88;64.79;99036.88;310409;31;4010;-77
2023/04/27 00:06:19;;;;;;;312.67;124.17;;;;;;;12.87;64.71;99048.31;308744;31;4003;-77
2023/04/27 00:06:31;;;;;;;313.83;126.25;;;;;;;12.86;64.63;99044.00;308243;32;3270;-77
2023/04/27 00:06:42;;;;;;;316.58;128.50;;;;;;;12.90;64.53;99047.31;309594;31;4423;-77
2023/04/27 00:06:52;;;;;;;314.40;128.27;;;;;;;12.88;64.61;99039.50;308228;31;4594;-77
2023/04/27 00:07:02;;;;;;;315.42;129.30;;;;;;;12.85;64.83;99046.72;305609;32;4854;-77
2023/04/27 00:07:13;;;;;;;316.47;129.27;;;;;;;12.83;64.88;99044.19;310553;31;3857;-77
2023/04/27 00:07:25;;;;;;;319.45;129.05;;;;;;;12.83;64.89;99046.81;307330;31;4010;-77
2023/04/27 00:07:35;;;;;;;314.45;123.03;;;;;;;12.83;65.04;99051.22;304588;32;3351;-77
2023/04/27 00:07:45;;;;;;;314.20;122.57;;;;;;;12.81;64.97;99053.09;303637;32;1456;-77
2023/04/27 00:07:56;;;;;;;310.03;121.37;;;;;;;12.80;65.13;99047.00;302133;32;3529;-77
2023/04/27 00:08:06;;;;;;;312.50;125.80;;;;;;;12.72;65.16;99041.34;302087;32;3733;-77
2023/04/27 00:08:17;;;;;;;312.00;125.80;;;;;;;12.73;65.23;99053.53;305007;32;3259;-77
2023/04/27 00:08:27;;;;;;;314.30;126.05;;;;;;;12.73;65.14;99048.28;300570;32;5357;-77
2023/04/27 00:08:38;;;;;;;314.27;124.80;;;;;;;12.72;65.57;99046.59;297286;33;5724;-78
2023/04/27 00:08:48;;;;;;;315.27;126.40;;;;;;;12.68;65.24;99039.84;296509;33;6147;-78
2023/04/27 00:08:59;;;;;;;311.65;126.13;;;;;;;12.72;65.38;99051.84;295797;33;3613;-77
2023/04/27 00:09:10;;;;;;;310.98;125.70;;;;;;;12.75;65.27;99054.28;295105;33;6505;-77
2023/04/27 00:09:20;;;;;;;311.70;124.13;;;;;;;12.76;64.97;99053.38;294062;32;4834;-77
2023/04/27 00:09:31;;;;;;;317.88;127.35;;;;;;;12.74;64.83;99049.97;297141;33;1365;-77
2023/04/27 00:09:41;;;;;;;318.07;127.30;;;;;;;12.70;64.72;99048.47;293141;33;5476;-77
2023/04/27 00:09:51;;;;;;;318.40;128.63;;;;;;;12.68;64.88;99052.97;289661;33;4973;-77
2023/04/27 00:10:02;;;;;;;314.10;127.22;;;;;;;12.68;65.04;99052.97;290882;33;2957;-77
2023/04/27 00:10:12;;;;;;;314.93;129.47;;;;;;;12.66;65.18;99053.06;285074;34;4952;-77
2023/04/27 00:10:23;;;;;;;314.75;129.90;;;;;;;12.68;65.22;99052.13;287123;34;6514;-77
2023/04/27 00:10:33;;;;;;;320.63;131.27;;;;;;;12.70;65.13;99053.72;287348;34;1331;-77
2023/04/27 00:10:43;;;;;;;318.08;128.02;;;;;;;12.71;64.89;99044.06;282778;34;3528;-77
2023/04/27 00:10:55;;;;;;;319.47;127.80;;;;;;;12.69;65.17;99046.78;281411;34;9756;-77
2023/04/27 00:11:05;;;;;;;313.48;125.35;;;;;;;12.69;65.04;99049.41;277617;35;9251;-77
2023/04/27 00:11:16;;;;;;;318.07;127.53;;;;;;;12.61;65.09;99049.00;276018;35;3349;-77
2023/04/27 00:11:26;;;;;;;319.77;128.23;;;;;;;12.70;65.62;99053.72;277890;35;9687;-77
2023/04/27 00:11:37;;;;;;;326.17;132.37;;;;;;;12.71;65.30;99050.16;275431;35;7538;-77
2023/04/27 00:11:47;;;;;;;325.88;137.98;;;;;;;12.71;65.16;99049.31;273907;35;5374;-77
2023/04/27 00:11:57;;;;;;;325.50;138.83;;;;;;;12.76;65.31;99047.25;276277;35;8167;-77
2023/04/27 00:13:37;;;;;;;302.27;116.84;;;;;;;12.82;64.76;99058.25;2496956;27;20261;-77
2023/04/27 00:13:47;;;;;;;310.07;123.13;;;;;;;12.76;64.98;99052.50;353000;28;3008;-77
2023/04/27 00:13:57;;;;;;;311.13;123.85;;;;;;;12.75;64.85;99051.69;350659;28;1234;-77
2023/04/27 00:14:08;;;;;;;309.83;124.07;;;;;;;12.79;65.07;99063.69;348937;28;1208;-77
2023/04/27 00:14:19;;;;;;;308.03;123.13;;;;;;;12.79;64.97;99058.44;347002;28;3407;-77
2023/04/27 00:14:30;;;;;;;309.30;124.57;;;;;;;12.77;65.10;99062.09;346529;28;4562;-76
2023/04/27 00:14:40;;;;;;;310.87;125.20;;;;;;;12.76;65.04;99048.13;348707;28;1313;-76
2023/04/27 00:14:50;;;;;;;312.20;124.30;;;;;;;12.75;64.87;99051.69;345932;28;2026;-77
2023/04/27 00:15:01;;;;;;;310.73;121.70;;;;;;;12.71;64.75;99059.81;350265;28;1221;-77
2023/04/27 00:15:11;;;;;;;310.20;121.82;;;;;;;12.71;65.13;99052.78;350427;28;1288;-77
2023/04/27 00:15:22;;;;;;;310.50;121.87;;;;;;;12.70;64.89;99048.47;348079;28;3449;-77
2023/04/27 00:15:33;;;;;;;313.30;124.50;;;;;;;12.70;64.91;99056.34;348579;28;2861;-77
2023/04/27 00:15:44;;;;;;;314.05;124.57;;;;;;;12.68;65.01;99052.97;347550;28;985;-77
2023/04/27 00:15:54;;;;;;;316.10;124.50;;;;;;;12.67;64.71;99053.91;347597;28;1267;-77
2023/04/27 00:16:05;;;;;;;317.33;124.50;;;;;;;12.64;64.90;99054.06;347545;28;1216;-77
2023/04/27 00:16:16;;;;;;;312.27;122.80;;;;;;;12.61;65.02;99046.38;348203;28;1292;-77
2023/04/27 00:16:26;;;;;;;309.33;120.82;;;;;;;12.64;65.37;99059.31;347407;28;2272;-77
2023/04/27 00:16:37;;;;;;;312.40;123.77;;;;;;;12.67;65.27;99053.91;348183;28;2957;-76
2023/04/27 00:16:47;;;;;;;313.83;125.07;;;;;;;12.68;64.99;99049.50;347382;28;3161;-76
2023/04/27 00:16:57;;;;;;;317.60;127.13;;;;;;;12.70;64.94;99053.72;347380;28;2696;-76
2023/04/27 00:17:08;;;;;;;315.43;124.80;;;;;;;12.71;65.37;99055.41;349066;28;899;-76
2023/04/27 00:17:18;;;;;;;313.45;125.25;;;;;;;12.71;65.17;99059.81;347056;28;1199;-77
2023/04/27 00:17:28;;;;;;;311.33;125.90;;;;;;;12.72;65.21;99051.84;348035;28;2846;-77
2023/04/27 00:17:39;;;;;;;310.27;126.75;;;;;;;12.74;64.91;99049.97;348248;28;2861;-77
2023/04/27 00:17:50;;;;;;;311.58;127.93;;;;;;;12.68;64.87;99055.59;348549;28;2917;-77
2023/04/27 00:18:00;;;;;;;316.73;131.30;;;;;;;12.70;64.97;99055.50;346372;28;2741;-77
2023/04/27 00:18:11;;;;;;;317.00;129.98;;;;;;;12.69;64.82;99059.91;344846;28;965;-77
2023/04/27 00:18:22;;;;;;;313.13;125.75;;;;;;;12.67;64.97;99053.91;343774;28;869;-77
2023/04/27 00:18:32;;;;;;;311.17;125.47;;;;;;;12.71;64.69;99065.91;345726;28;2206;-77
2023/04/27 00:18:42;;;;;;;311.90;125.40;;;;;;;12.72;64.81;99067.59;346315;28;2269;-77
2023/04/27 00:18:53;;;;;;;312.27;126.20;;;;;;;12.75;64.87;99064.81;346289;28;821;-77
2023/04/27 00:19:03;;;;;;;316.45;126.97;;;;;;;12.74;64.78;99054.38;346009;28;3275;-77
2023/04/27 00:19:15;;;;;;;315.23;126.87;;;;;;;12.76;64.67;99061.25;347873;28;1390;-77
2023/04/27 00:19:25;;;;;;;311.45;125.55;;;;;;;12.77;64.88;99052.44;347780;28;855;-77
2023/04/27 00:19:36;;;;;;;310.90;125.87;;;;;;;12.77;65.17;99064.72;348533;28;1732;-76
2023/04/27 00:19:47;;;;;;;311.93;123.93;;;;;;;12.76;64.63;99058.63;346273;28;3245;-76
2023/04/27 00:19:57;;;;;;;312.52;122.00;;;;;;;12.74;65.11;99055.22;343699;28;1148;-76
2023/04/27 00:20:10;;;;;;;314.93;122.17;;;;;;;12.73;65.01;99063.19;343641;28;849;-76
2023/04/27 00:20:21;;;;;;;313.23;121.88;;;;;;;12.76;64.88;99055.16;344244;28;1466;-76
2023/04/27 00:20:32;;;;;;;308.10;121.85;;;;;;;12.78;64.89;99061.16;346244;28;1317;-77
2023/04/27 00:20:43;;;;;;;308.77;123.50;;;;;;;12.77;64.73;99060.31;342241;28;3377;-76
2023/04/27 00:20:54;;;;;;;310.38;123.75;;;;;;;12.74;64.78;99063.13;344065;28;939;-76
2023/04/27 00:21:04;;;;;;;313.98;123.90;;;;;;;12.77;65.02;99067.34;344737;28;1344;-76
2023/04/27 00:21:15;;;;;;;311.60;121.07;;;;;;;12.76;65.32;99058.63;346526;28;5299;-77
2023/04/27 00:21:25;;;;;;;309.63;119.83;;;;;;;12.76;64.93;99058.63;340888;28;1194;-77
2023/04/27 00:21:36;;;;;;;304.60;117.97;;;;;;;12.80;64.88;99056.66;334691;29;2976;-77
2023/04/27 00:21:46;;;;;;;307.63;122.57;;;;;;;12.78;64.67;99056.75;337841;28;5041;-76
2023/04/27 00:21:58;;;;;;;311.83;126.37;;;;;;;12.75;64.78;99059.56;337625;29;3117;-76
2023/04/27 00:22:10;;;;;;;317.92;128.85;;;;;;;12.71;64.53;99060.66;338307;29;934;-77
2023/04/27 00:22:20;;;;;;;316.00;127.00;;;;;;;12.75;64.85;99067.44;337129;29;1547;-77
2023/04/27 00:22:30;;;;;;;316.17;125.43;;;;;;;12.77;64.61;99054.22;334135;29;1921;-77
2023/04/27 00:22:41;;;;;;;310.80;122.40;;;;;;;12.79;64.93;99062.84;332606;29;2718;-77
2023/04/27 00:22:51;;;;;;;310.47;119.97;;;;;;;12.76;64.89;99053.38;335937;29;2815;-77
2023/04/27 00:23:02;;;;;;;306.25;117.28;;;;;;;12.73;64.69;99058.78;335654;29;894;-77
2023/04/27 00:23:12;;;;;;;312.30;121.63;;;;;;;12.71;65.08;99055.41;336548;29;1191;-77
2023/04/27 00:23:23;;;;;;;313.48;122.95;;;;;;;12.71;64.74;99063.28;333130;29;1215;-77
2023/04/27 00:23:33;;;;;;;315.03;123.83;;;;;;;12.72;64.94;99059.72;332114;29;1598;-77
2023/04/27 00:23:43;;;;;;;308.10;119.55;;;;;;;12.73;65.22;99066.66;332867;29;2961;-77
2023/04/27 00:23:54;;;;;;;309.20;120.67;;;;;;;12.74;65.09;99060.47;330935;29;4577;-77
2023/04/27 00:24:05;;;;;;;310.30;122.82;;;;;;;12.76;65.21;99066.50;330177;29;1914;-77
2023/04/27 00:24:15;;;;;;;317.27;126.33;;;;;;;12.72;64.74;99062.34;330022;29;2070;-76
2023/04/27 00:24:26;;;;;;;317.63;124.50;;;;;;;12.72;64.85;99062.34;330497;29;1361;-77
2023/04/27 00:24:36;;;;;;;319.80;125.95;;;;;;;12.70;65.09;99058.97;335514;29;1507;-77
2023/04/27 00:24:47;;;;;;;313.33;124.00;;;;;;;12.68;64.96;99060.00;334871;29;3384;-78
2023/04/27 00:24:57;;;;;;;312.08;126.38;;;;;;;12.71;65.03;99054.56;329635;29;3017;-78
2023/04/27 00:25:08;;;;;;;312.83;125.63;;;;;;;12.73;64.99;99064.03;332242;29;2668;-77
2023/04/27 00:25:18;;;;;;;317.23;125.35;;;;;;;12.72;64.77;99067.59;332677;29;5307;-77
2023/04/27 00:25:28;;;;;;;319.07;124.10;;;;;;;12.74;64.70;99068.34;330845;29;1961;-76
2023/04/27 00:25:39;;;;;;;317.30;123.87;;;;;;;12.73;64.82;99058.78;330608;29;1383;-76
2023/04/27 00:25:49;;;;;;;311.63;122.28;;;;;;;12.74;64.47;99070.13;331620;29;3464;-76
2023/04/27 00:26:00;;;;;;;308.80;122.03;;;;;;;12.71;64.86;99068.53;326994;29;5069;-77
2023/04/27 00:26:10;;;;;;;310.38;122.40;;;;;;;12.71;64.95;99065.91;327886;30;2836;-77
2023/04/27 00:26:21;;;;;;;316.33;124.97;;;;;;;12.72;64.68;99057.09;330032;29;2358;-77
2023/04/27 00:26:31;;;;;;;316.52;126.57;;;;;;;12.76;64.97;99063.88;326898;30;3091;-77
2023/04/27 00:26:42;;;;;;;315.45;126.80;;;;;;;12.78;64.97;99066.41;324482;30;2769;-77
2023/04/27 00:26:52;;;;;;;309.70;124.40;;;;;;;12.78;64.82;99062.00;323420;30;1227;-77
2023/04/27 00:27:02;;;;;;;309.30;123.90;;;;;;;12.79;64.98;99061.06;326151;30;3546;-77
2023/04/27 00:27:13;;;;;;;310.20;124.30;;;;;;;12.80;64.77;99065.38;326393;30;3114;-76
2023/04/27 00:27:23;;;;;;;310.40;123.47;;;;;;;12.81;64.97;99072.31;329212;30;1312;-77
2023/04/27 00:27:34;;;;;;;316.38;125.95;;;;;;;12.84;64.99;99071.31;327454;30;2182;-77
2023/04/27 00:27:44;;;;;;;316.00;125.10;;;;;;;12.81;64.68;99056.56;325276;30;2710;-77
2023/04/27 00:27:55;;;;;;;315.05;124.32;;;;;;;12.76;64.52;99063.88;322443;30;837;-77
2023/04/27 00:28:05;;;;;;;311.67;122.73;;;;;;;12.75;64.95;99070.06;320922;30;2779;-77
2023/04/27 00:28:15;;;;;;;314.25;124.03;;;;;;;12.74;64.83;99060.47;315053;31;3068;-77
2023/04/27 00:28:26;;;;;;;314.90;125.07;;;;;;;12.75;64.99;99064.81;315681;31;3219;-77
2023/04/27 00:28:36;;;;;;;317.13;125.85;;;;;;;12.73;64.91;99073.69;315210;31;910;-77
2023/04/27 00:28:47;;;;;;;317.87;126.40;;;;;;;12.75;64.86;99066.59;309493;31;3419;-76
2023/04/27 00:28:57;;;;;;;316.55;126.32;;;;;;;12.75;64.93;99066.59;308869;31;3345;-76
2023/04/27 00:29:08;;;;;;;314.43;125.40;;;;;;;12.78;64.64;99074.28;311948;31;3557;-76
2023/04/27 00:29:18;;;;;;;310.57;123.13;;;;;;;12.78;64.85;99067.25;312198;31;2936;-77
2023/04/27 00:29:28;;;;;;;310.45;122.30;;;;;;;12.80;64.94;99070.63;310540;31;5417;-77
2023/04/27 00:29:42;;;;;;;315.23;123.30;;;;;;;12.78;64.72;99067.25;310795;31;879;-77
2023/04/27 00:29:52;;;;;;;315.98;123.68;;;;;;;12.76;64.95;99071.75;304232;32;1475;-77
2023/04/27 00:30:03;;;;;;;311.08;120.80;;;;;;;12.77;64.89;99073.44;304312;32;3695;-77
2023/04/27 00:30:14;;;;;;;308.23;119.97;;;;;;;12.75;64.59;99071.84;304067;31;4850;-77
2023/04/27 00:30:24;;;;;;;311.40;122.17;;;;;;;12.78;64.93;99069.88;308123;32;3012;-76
2023/04/27 00:30:35;;;;;;;315.02;125.88;;;;;;;12.79;64.92;99068.09;307303;32;4427;-77
2023/04/27 00:30:45;;;;;;;317.90;127.53;;;;;;;12.79;64.80;99068.09;304407;32;4226;-77
2023/04/27 00:30:56;;;;;;;316.83;126.30;;;;;;;12.80;64.83;99070.63;302334;32;790;-77
2023/04/27 00:31:06;;;;;;;315.63;124.80;;;;;;;12.80;65.00;99067.16;305342;32;1038;-77
2023/04/27 00:31:16;;;;;;;317.37;125.93;;;;;;;12.78;64.75;99072.50;306010;31;3370;-77
2023/04/27 00:31:27;;;;;;;316.83;125.82;;;;;;;12.68;64.81;99067.88;304617;32;3468;-77
2023/04/27 00:31:37;;;;;;;310.40;121.73;;;;;;;12.65;64.95;99068.91;300964;32;1316;-77
2023/04/27 00:31:48;;;;;;;314.10;124.60;;;;;;;12.63;65.20;99068.97;302029;32;3356;-77
2023/04/27 00:31:58;;;;;;;312.83;122.60;;;;;;;12.65;65.13;99068.91;300747;32;4241;-77
2023/04/27 00:32:09;;;;;;;313.27;124.55;;;;;;;12.67;65.23;99072.28;298392;33;842;-77
2023/04/27 00:32:20;;;;;;;312.23;123.15;;;;;;;12.68;65.18;99075.75;297639;32;5369;-76
2023/04/27 00:32:30;;;;;;;315.53;127.03;;;;;;;12.68;65.25;99075.75;296154;32;6244;-78
2023/04/27 00:32:41;;;;;;;316.33;126.95;;;;;;;12.67;64.99;99072.28;297981;33;3049;-77
2023/04/27 00:32:51;;;;;;;318.95;128.45;;;;;;;12.69;65.09;99078.28;298210;33;830;-77
2023/04/27 00:33:02;;;;;;;318.70;128.50;;;;;;;12.70;65.18;99072.09;297895;32;7535;-77
2023/04/27 00:33:13;;;;;;;315.45;128.40;;;;;;;12.69;65.20;99072.19;296348;33;8557;-77
2023/04/27 00:33:23;;;;;;;317.00;128.77;;;;;;;12.71;65.54;99071.16;293741;33;2304;-77
2023/04/27 00:33:33;;;;;;;316.42;128.32;;;;;;;12.69;65.10;99072.19;296502;32;4860;-77
2023/04/27 00:33:44;;;;;;;316.30;126.57;;;;;;;12.70;65.24;99073.88;294218;33;4797;-77
2023/04/27 00:33:54;;;;;;;315.40;125.80;;;;;;;12.73;65.25;99085.06;294132;33;1290;-77
2023/04/27 00:34:05;;;;;;;314.33;124.13;;;;;;;12.75;65.04;99083.19;292058;33;5200;-77
2023/04/27 00:34:15;;;;;;;310.05;122.03;;;;;;;12.76;65.11;99074.38;288889;33;6644;-77
2023/04/27 00:34:25;;;;;;;308.33;121.63;;;;;;;12.72;64.95;99072.00;289231;34;2922;-76
2023/04/27 00:34:36;;;;;;;309.40;124.63;;;;;;;12.72;65.19;99064.97;291244;33;7372;-76
2023/04/27 00:34:47;;;;;;;314.50;125.97;;;;;;;12.71;64.97;99075.56;291778;33;8389;-76
2023/04/27 00:34:57;;;;;;;317.45;126.03;;;;;;;12.68;64.73;99075.75;288899;33;7695;-76
2023/04/27 00:35:08;;;;;;;317.70;124.07;;;;;;;12.69;65.16;99078.28;290315;34;3027;-77
2023/04/27 00:35:18;;;;;;;318.48;123.85;;;;;;;12.69;64.95;99074.81;284143;34;9818;-78
2023/04/27 00:35:29;;;;;;;312.80;120.47;;;;;;;12.72;64.97;99072.84;283896;34;11495;-77
2023/04/27 00:35:39;;;;;;;311.48;121.10;;;;;;;12.65;65.08;99071.50;288540;34;4685;-77
2023/04/27 00:35:49;;;;;;;310.40;122.07;;;;;;;12.69;65.17;99077.44;285084;34;6309;-77
2023/04/27 00:37:48;;;;;;;298.58;112.46;;;;;;;12.70;64.64;99073.88;2476389;27;20541;-76
2023/04/27 00:37:59;;;;;;;304.73;115.33;;;;;;;12.67;64.76;99074.91;350128;28;3008;-76
2023/04/27 00:38:10;;;;;;;311.65;118.20;;;;;;;12.71;64.81;99081.66;348969;28;1262;-77
2023/04/27 00:38:20;;;;;;;314.25;121.43;;;;;;;12.66;64.75;99083.72;346113;28;1416;-77
2023/04/27 00:38:31;;;;;;;313.40;122.03;;;;;;;12.67;64.34;99077.53;346207;28;1199;-77
2023/04/27 00:38:41;;;;;;;307.92;120.35;;;;;;;12.63;64.64;99079.47;344501;28;2513;-77
2023/04/27 00:38:52;;;;;;;311.60;122.07;;;;;;;12.62;64.79;99080.41;346104;28;2884;-76
2023/04/27 00:39:03;;;;;;;311.35;122.18;;;;;;;12.63;64.72;99084.72;344994;28;1247;-77
2023/04/27 00:39:13;;;;;;;315.85;123.57;;;;;;;12.63;64.77;99076.00;347502;28;1338;-77
2023/04/27 00:39:23;;;;;;;311.47;121.93;;;;;;;12.61;64.74;99070.84;348678;28;3116;-77
2023/04/27 00:39:35;;;;;;;312.05;122.47;;;;;;;12.58;65.13;99080.69;346183;28;1240;-77
2023/04/27 00:39:45;;;;;;;309.63;123.45;;;;;;;12.55;64.95;99080.88;345647;28;3345;-77
2023/04/27 00:39:55;;;;;;;309.87;124.67;;;;;;;12.52;65.04;99070.56;344887;28;4439;-77
2023/04/27 00:40:06;;;;;;;311.23;125.40;;;;;;;12.59;65.01;99083.22;344935;28;1198;-77
2023/04/27 00:40:19;;;;;;;314.92;126.03;;;;;;;12.48;64.63;99069.03;343498;28;885;-77
2023/04/27 00:40:30;;;;;;;313.27;122.88;;;;;;;12.53;65.13;99077.50;343686;28;921;-77
2023/04/27 00:40:40;;;;;;;309.85;120.53;;;;;;;12.56;64.96;99078.13;343515;28;1289;-77
2023/04/27 00:40:50;;;;;;;309.00;120.70;;;;;;;12.58;65.14;99080.69;344677;28;2722;-77
2023/04/27 00:41:05;;;;;;;308.20;121.07;;;;;;;12.57;64.86;99078.97;346780;28;3070;-77
2023/04/27 00:41:15;;;;;;;310.08;120.40;;;;;;;12.54;64.92;99071.31;343417;28;1311;-77
2023/04/27 00:41:26;;;;;;;310.13;118.70;;;;;;;12.62;65.12;99083.03;344576;28;5170;-77
2023/04/27 00:41:38;;;;;;;311.60;120.93;;;;;;;12.67;65.14;99085.41;344905;28;1209;-77
2023/04/27 00:41:48;;;;;;;307.50;120.97;;;;;;;12.69;64.85;99083.53;340651;29;3805;-77
2023/04/27 00:41:59;;;;;;;307.50;122.50;;;;;;;12.67;64.40;99085.41;336659;29;4959;-78
2023/04/27 00:42:13;;;;;;;309.33;122.87;;;;;;;12.66;64.92;99081.09;339049;29;5191;-77
2023/04/27 00:42:24;;;;;;;313.02;124.90;;;;;;;12.67;64.82;99080.16;341008;28;1427;-77
2023/04/27 00:42:34;;;;;;;310.48;122.72;;;;;;;12.62;64.92;99071.69;340753;28;2961;-77
2023/04/27 00:42:45;;;;;;;311.03;122.70;;;;;;;12.74;64.75;99092.00;343260;28;1247;-77
2023/04/27 00:42:57;;;;;;;307.52;122.20;;;;;;;12.71;64.94;99081.66;343420;28;1313;-78
2023/04/27 00:43:07;;;;;;;306.98;121.85;;;;;;;12.65;64.84;99084.66;340995;28;2786;-78
2023/04/27 00:43:17;;;;;;;308.27;120.73;;;;;;;12.60;64.98;99090.16;341791;28;1252;-78
2023/04/27 00:43:28;;;;;;;313.60;122.53;;;;;;;12.58;64.98;99081.53;337999;29;2909;-78
2023/04/27 00:43:42;;;;;;;312.70;120.85;;;;;;;12.62;65.01;99083.03;335836;29;1168;-78
2023/04/27 00:43:53;;;;;;;306.13;117.97;;;;;;;12.63;65.03;99081.25;339319;28;2562;-77
2023/04/27 00:44:03;;;;;;;305.17;119.22;;;;;;;12.64;65.09;99080.31;341030;28;3551;-78
2023/04/27 00:44:24;;;;;;;307.47;122.13;;;;;;;12.68;65.03;99092.34;342324;28;3057;-78
2023/04/27 00:44:34;;;;;;;312.00;123.75;;;;;;;12.69;65.01;99085.31;340570;28;5264;-78
2023/04/27 00:44:45;;;;;;;311.95;122.72;;;;;;;12.70;65.03;99085.22;340517;29;1309;-78
2023/04/27 00:44:57;;;;;;;310.17;120.75;;;;;;;12.70;65.11;99074.72;338383;29;1908;-78
2023/04/27 00:45:09;;;;;;;310.42;122.03;;;;;;;12.71;65.12;99086.91;337635;29;4610;-78
2023/04/27 00:45:19;;;;;;;313.80;122.55;;;;;;;12.70;64.86;99087.00;336871;29;3089;-78
2023/04/27 00:45:30;;;;;;;315.90;123.45;;;;;;;12.70;64.82;99085.22;344309;28;1323;-78
2023/04/27 00:45:44;;;;;;;315.67;121.43;;;;;;;12.72;64.89;99085.97;340295;29;1402;-78
2023/04/27 00:45:55;;;;;;;311.85;118.28;;;;;;;12.73;64.73;99090.31;336085;29;1533;-78
2023/04/27 00:46:05;;;;;;;310.13;119.27;;;;;;;12.73;64.75;99085.06;339047;29;3415;-77
2023/04/27 00:46:15;;;;;;;309.75;121.25;;;;;;;12.74;64.74;99086.75;334793;29;2953;-77
2023/04/27 00:46:26;;;;;;;312.23;123.33;;;;;;;12.63;64.10;99092.59;337116;29;2837;-77
2023/04/27 00:46:37;;;;;;;317.70;126.15;;;;;;;12.60;64.35;99084.06;336879;29;1976;-77
2023/04/27 00:46:47;;;;;;;316.23;124.13;;;;;;;12.55;64.52;99076.47;333235;29;1319;-78
2023/04/27 00:46:58;;;;;;;314.48;121.97;;;;;;;12.59;64.59;99082.38;333765;29;1260;-78
2023/04/27 00:47:08;;;;;;;307.27;119.27;;;;;;;12.60;64.57;99087.53;334089;29;3456;-77
2023/04/27 00:47:19;;;;;;;307.63;120.93;;;;;;;12.61;64.45;99085.75;333427;29;3101;-77
2023/04/27 00:47:29;;;;;;;309.17;121.72;;;;;;;12.61;64.33;99078.72;332780;29;984;-77
2023/04/27 00:47:40;;;;;;;314.70;122.90;;;;;;;12.62;64.40;99088.28;334366;29;1502;-77
2023/04/27 00:47:51;;;;;;;314.15;123.97;;;;;;;12.68;64.22;99083.63;330636;29;1208;-77
2023/04/27 00:48:01;;;;;;;314.10;124.22;;;;;;;12.70;63.83;99095.72;330802;29;1973;-77
2023/04/27 00:48:11;;;;;;;309.17;122.43;;;;;;;12.69;64.41;99083.53;329389;29;2705;-77
2023/04/27 00:48:22;;;;;;;309.77;121.97;;;;;;;12.71;64.51;99081.66;326314;30;5363;-77
2023/04/27 00:48:32;;;;;;;309.00;119.93;;;;;;;12.69;64.38;99082.69;327875;30;1968;-77
2023/04/27 00:48:42;;;;;;;314.70;122.73;;;;;;;12.62;64.08;99082.19;329178;29;2220;-77
2023/04/27 00:48:53;;;;;;;314.00;122.30;;;;;;;12.62;64.46;99082.19;329358;29;1720;-77
2023/04/27 00:49:03;;;;;;;314.53;124.33;;;;;;;12.61;64.32;99091.84;330407;29;1283;-77
2023/04/27 00:49:14;;;;;;;309.67;121.53;;;;;;;12.60;64.69;99097.19;328045;29;1678;-77
2023/04/27 00:49:24;;;;;;;309.45;119.82;;;;;;;12.58;64.57;99091.19;329164;29;5002;-77
2023/04/27 00:49:34;;;;;;;309.00;119.13;;;;;;;12.60;64.47;99089.31;331428;29;3088;-77
2023/04/27 00:49:45;;;;;;;312.75;123.07;;;;;;;12.61;64.63;99091.84;324707;30;1845;-77
2023/04/27 00:49:55;;;;;;;316.17;122.93;;;;;;;12.61;64.56;99083.97;323571;30;3155;-77
2023/04/27 00:50:09;;;;;;;317.13;122.20;;;;;;;12.58;64.43;99085.94;320881;30;1272;-77
2023/04/27 00:50:22;;;;;;;310.33;119.45;;;;;;;12.50;64.44;99088.19;322776;30;2000;-78
2023/04/27 00:50:33;;;;;;;308.23;120.80;;;;;;;12.43;64.53;99092.91;322370;30;1276;-77
2023/04/27 00:50:43;;;;;;;310.60;121.43;;;;;;;12.39;64.49;99093.19;319965;30;2561;-77
2023/04/27 00:50:53;;;;;;;312.17;120.38;;;;;;;12.39;64.43;99091.41;317257;31;2879;-77
2023/04/27 00:51:05;;;;;;;313.17;121.63;;;;;;;12.42;64.73;99100.88;317529;31;1214;-77
2023/04/27 00:51:15;;;;;;;308.05;119.68;;;;;;;12.45;64.73;99101.56;318961;30;3405;-77
2023/04/27 00:51:29;;;;;;;307.23;119.03;;;;;;;12.47;64.76;99096.22;317179;30;3065;-77
2023/04/27 00:51:39;;;;;;;309.30;119.50;;;;;;;12.49;64.78;99091.72;319342;30;3128;-77
2023/04/27 00:51:50;;;;;;;314.75;123.13;;;;;;;12.51;64.67;99082.00;316303;31;1629;-77
2023/04/27 00:52:00;;;;;;;315.55;124.30;;;;;;;12.49;64.76;99086.47;318680;30;2732;-77
2023/04/27 00:52:11;;;;;;;316.53;124.87;;;;;;;12.43;64.85;99092.06;317708;30;2807;-78
2023/04/27 00:52:21;;;;;;;309.92;121.72;;;;;;;12.36;64.80;99090.72;317151;31;3236;-77
2023/04/27 00:52:31;;;;;;;311.17;122.10;;;;;;;12.42;64.79;99090.38;317810;30;4107;-77